Etusivu
METAR-TAF:

METAR-TAF

Lentoasemat :

Faa’an kansainvälinen lentoasema

Tahiti, Ranskan Polynesia

Leveyspiiri: 17-33S, Pituuspiiri: 149-37W, korkeus merenpinnasta: 2 m

Tämänhetkinen sää

Tämä raportti tehtiin 11 minuuttia sitten, kello 05.00 UTC
Tuuli 4 kn pohjoisesta, vaihdellen luoteen ja pohjoisen/koillisen välillä
Lämpötila 26°C
Kosteus 74%
Ilmanpaine 1015 hPa
Näkyvyys 10 km tai enemmän
Muutamia pilviä 2000 ft:n korkeudessa
Hajonneita pilviä 4600 ft:n korkeudessa

METAR: NTAA 170500Z 35004KT 320V020 9999 FEW020 BKN046 26/21 Q1015 NOSIG

Aika: 19:11 (05:11 UTC)

Sääennuste

Tämä raportti tehtiin 6 tuntia ja 11 minuuttia sitten, kello 23.00 UTC
Ennuste voimassa 17. päivästä klo 00 UTC - 18. päivään klo 06 UTC
Tuuli 5 kn eri suunnista
Näkyvyys 10 km tai enemmän
Muutamia pilviä 2300 ft:n korkeudessa

TAF: NTAA 162300Z 1700/1806 VRB05KT 9999 FEW023

Säähavainnot ja -ennusteet yli 4000 lentoasemalta (METAR- ja TAF-raportit).

Käytössä olevat sääasemat on merkitty karttaan keltaisilla ja punaisilla pisteillä.

Aseta hiiri pisteen päälle nähdäksesi sääaseman nimen.

Klikkaa sitten nähdäksesi säähavainnot ja -ennusteet.

Kartan vaihtaminen: klikkaa mustalla rastilla varustettuja vihreitä pisteitä, niin voit zoomata sisään; viivalla varustettua vihreää pistettä, niin voit zoomata ulos tai vihreitä nuolia, niin pääset viereisille kartoille.


METAR-TAF: